Time;durP1;ratioP1;P1;durP2;ratioP2;P2;SDS_P1;SDS_P2;PMS_P1;PMS_P2;Temp;Humidity;BMP_temperature;BMP_pressure;BME280_temperature;BME280_humidity;BME280_pressure;Samples;Min_cycle;Max_cycle;Signal;HPM_P1;HPM_P2
2024/03/14 00:00:54;;;;;;;6.70;2.38;;;;;;;10.83;77.98;99470.59;5057893;28;20057;-46
2024/03/14 00:03:22;;;;;;;9.38;2.47;;;;;;;10.89;77.23;99475.72;5058147;28;20056;-49
2024/03/14 00:05:49;;;;;;;6.18;1.90;;;;;;;10.84;76.85;99472.34;5062570;28;20094;-47
2024/03/14 00:08:16;;;;;;;11.68;2.42;;;;;;;10.79;76.78;99465.50;5055334;28;20072;-47
2024/03/14 00:10:43;;;;;;;5.80;2.88;;;;;;;10.82;77.89;99461.13;5059427;28;20044;-46
2024/03/14 00:13:11;;;;;;;5.35;1.40;;;;;;;10.76;77.43;99462.94;5066161;28;20056;-43
2024/03/14 00:15:38;;;;;;;6.60;2.20;;;;;;;10.85;76.96;99453.31;5063223;28;20049;-46
2024/03/14 00:18:05;;;;;;;6.95;1.98;;;;;;;10.87;77.60;99456.72;5066097;28;20052;-47
2024/03/14 00:20:34;;;;;;;7.40;2.22;;;;;;;10.92;77.80;99460.13;5062501;28;20048;-51
2024/03/14 00:23:00;;;;;;;9.48;3.58;;;;;;;10.89;77.06;99465.34;5062497;28;20084;-49
2024/03/14 00:25:27;;;;;;;6.00;2.08;;;;;;;10.86;77.71;99460.22;5064183;28;20049;-46
2024/03/14 00:27:53;;;;;;;5.47;1.85;;;;;;;10.90;77.92;99461.88;5066738;28;20676;-45
2024/03/14 00:30:20;;;;;;;9.25;1.98;;;;;;;10.86;77.91;99460.22;5066888;28;20465;-47
2024/03/14 00:32:47;;;;;;;2.65;1.10;;;;;;;10.79;77.44;99462.03;5070240;28;20446;-47
2024/03/14 00:35:15;;;;;;;10.65;2.13;;;;;;;10.80;77.93;99450.78;5062495;28;20058;-50
2024/03/14 00:37:44;;;;;;;4.03;1.45;;;;;;;10.80;77.20;99462.00;5068712;28;20382;-49
2024/03/14 00:40:11;;;;;;;9.27;1.60;;;;;;;10.82;77.64;99453.34;5067733;28;20044;-46
2024/03/14 00:42:45;;;;;;;9.13;2.03;;;;;;;10.78;77.41;99448.22;5070687;28;20060;-44
2024/03/14 00:45:14;;;;;;;4.93;2.08;;;;;;;10.81;76.87;99449.94;5068139;28;20055;-45
2024/03/14 00:47:41;;;;;;;4.53;1.52;;;;;;;10.76;76.79;99449.97;5069842;28;20048;-47
2024/03/14 00:50:09;;;;;;;8.80;2.38;;;;;;;10.74;77.88;99454.31;5069746;28;20055;-50
2024/03/14 00:52:37;;;;;;;5.00;1.88;;;;;;;10.69;77.98;99448.34;5069872;28;20106;-47
2024/03/14 00:55:08;;;;;;;12.65;2.28;;;;;;;10.69;77.96;99438.00;5069093;28;20082;-46
2024/03/14 00:57:36;;;;;;;6.72;2.15;;;;;;;10.67;77.12;99447.50;5070028;28;20059;-50
2024/03/14 01:00:11;;;;;;;8.27;2.05;;;;;;;10.68;76.67;99438.88;5067425;28;20060;-50
2024/03/14 01:02:39;;;;;;;5.25;2.38;;;;;;;10.60;77.27;99441.53;5062166;28;20048;-45
2024/03/14 01:05:07;;;;;;;11.05;2.03;;;;;;;10.63;76.98;99448.41;5069513;28;20060;-49
2024/03/14 01:07:34;;;;;;;3.80;1.45;;;;;;;10.51;78.33;99439.91;5069891;28;20564;-47
2024/03/14 01:10:04;;;;;;;10.40;2.20;;;;;;;10.53;77.70;99443.38;5065301;28;20072;-46
2024/03/14 01:12:32;;;;;;;7.22;2.08;;;;;;;10.57;77.49;99438.16;5068585;28;20047;-49
2024/03/14 01:15:00;;;;;;;5.00;1.25;;;;;;;10.44;78.57;99430.50;5068748;28;20052;-48
2024/03/14 01:17:28;;;;;;;7.80;2.65;;;;;;;10.51;77.32;99437.34;5065056;28;20052;-51
2024/03/14 01:19:56;;;;;;;7.78;1.30;;;;;;;10.54;77.52;99439.06;5068565;28;20413;-44
2024/03/14 01:22:23;;;;;;;4.53;1.27;;;;;;;10.49;77.46;99427.88;5064559;28;20052;-46
2024/03/14 01:24:50;;;;;;;4.97;1.60;;;;;;;10.46;78.53;99431.34;5067988;28;20044;-48
2024/03/14 01:27:18;;;;;;;4.32;2.42;;;;;;;10.53;78.09;99432.13;5068634;28;20098;-47
2024/03/14 01:29:46;;;;;;;6.32;1.98;;;;;;;10.51;78.34;99432.16;5067082;28;20059;-47
2024/03/14 01:32:15;;;;;;;7.15;2.15;;;;;;;10.50;78.51;99433.03;5068977;28;20055;-46
2024/03/14 01:34:43;;;;;;;5.72;2.13;;;;;;;10.47;78.24;99427.06;5065342;28;20045;-47
2024/03/14 01:37:10;;;;;;;8.32;2.05;;;;;;;10.46;78.43;99430.50;5060531;28;20049;-46
2024/03/14 01:39:38;;;;;;;4.50;1.80;;;;;;;10.48;77.73;99424.44;5066115;28;20110;-50
2024/03/14 01:42:06;;;;;;;6.45;2.05;;;;;;;10.46;78.17;99428.78;5065233;28;20037;-45
2024/03/14 01:47:29;;;;;;;8.82;2.58;;;;;;;10.38;77.94;99428.84;5083586;27;20370;-52
2024/03/14 01:49:57;;;;;;;9.45;4.07;;;;;;;10.43;78.64;99426.19;5030641;28;20049;-47
2024/03/14 01:52:25;;;;;;;7.38;3.67;;;;;;;10.44;78.68;99422.75;5017997;28;20580;-49
2024/03/14 01:54:53;;;;;;;3.80;2.67;;;;;;;10.37;78.11;99431.44;5008540;28;20061;-50
2024/03/14 01:57:20;;;;;;;6.57;3.38;;;;;;;10.46;77.73;99422.72;5032050;28;20902;-46
2024/03/14 01:59:49;;;;;;;4.40;3.58;;;;;;;10.45;78.50;99424.47;5047901;28;20695;-48
2024/03/14 02:02:18;;;;;;;6.00;3.08;;;;;;;10.44;77.82;99412.38;5049184;28;20094;-47
2024/03/14 02:07:26;;;;;;;3.42;1.65;;;;;;;10.41;77.92;99413.25;5104760;27;20355;-50
2024/03/14 02:09:52;;;;;;;5.18;1.75;;;;;;;10.41;77.86;99409.81;5040010;28;20414;-45
2024/03/14 02:12:21;;;;;;;7.10;1.50;;;;;;;10.40;78.62;99401.19;5035197;28;20102;-45
2024/03/14 02:14:48;;;;;;;4.07;1.90;;;;;;;10.39;78.81;99398.63;5037716;28;20049;-44
2024/03/14 02:17:15;;;;;;;7.00;2.17;;;;;;;10.46;77.55;99394.25;5037840;28;20049;-48
2024/03/14 02:19:41;;;;;;;6.00;2.05;;;;;;;10.47;77.62;99390.81;5033329;28;20052;-49
2024/03/14 02:22:17;;;;;;;6.75;1.65;;;;;;;10.46;77.59;99387.34;5038815;28;20067;-46
2024/03/14 02:24:44;;;;;;;10.55;2.22;;;;;;;10.44;78.57;99383.03;5040747;28;20056;-48
2024/03/14 02:27:10;;;;;;;6.38;1.63;;;;;;;10.43;78.45;99384.75;5039099;28;20052;-49
2024/03/14 02:29:37;;;;;;;3.40;1.67;;;;;;;10.40;77.76;99382.19;5036409;28;20053;-50
2024/03/14 02:32:04;;;;;;;6.63;1.55;;;;;;;10.38;77.81;99377.06;5039982;28;20445;-45
2024/03/14 02:34:30;;;;;;;5.57;1.85;;;;;;;10.40;78.88;99371.84;5042155;28;20122;-46
2024/03/14 02:36:57;;;;;;;2.80;0.90;;;;;;;10.41;77.86;99360.63;5041240;28;20107;-51
2024/03/14 02:39:24;;;;;;;4.35;1.70;;;;;;;10.43;78.58;99353.69;5041217;28;20060;-45
2024/03/14 02:41:51;;;;;;;2.17;1.42;;;;;;;10.42;77.99;99352.00;5033200;28;20052;-46
2024/03/14 02:44:18;;;;;;;4.50;1.35;;;;;;;10.40;77.89;99352.00;5039647;28;20049;-46
2024/03/14 02:46:46;;;;;;;5.20;2.30;;;;;;;10.45;77.79;99354.56;5036842;28;20056;-48
2024/03/14 02:49:14;;;;;;;4.82;2.85;;;;;;;10.40;77.84;99351.13;5038474;28;20132;-49
2024/03/14 02:51:45;;;;;;;4.50;1.85;;;;;;;10.35;78.96;99342.59;5039781;28;20502;-48
2024/03/14 02:54:15;;;;;;;5.28;1.63;;;;;;;10.43;78.67;99343.34;5038806;28;20133;-47
2024/03/14 02:56:43;;;;;;;6.97;2.45;;;;;;;10.41;78.64;99345.09;5036280;28;20441;-46
2024/03/14 02:59:10;;;;;;;5.82;1.83;;;;;;;10.44;77.78;99342.47;5041916;28;20074;-49
2024/03/14 03:01:38;;;;;;;3.20;1.45;;;;;;;10.43;78.78;99340.75;5041029;28;20068;-45
2024/03/14 03:04:05;;;;;;;4.50;1.60;;;;;;;10.45;78.24;99330.41;5040271;28;20075;-47
2024/03/14 03:06:33;;;;;;;10.13;2.13;;;;;;;10.46;77.61;99327.81;5037457;28;20068;-49
2024/03/14 03:09:00;;;;;;;8.77;2.85;;;;;;;10.46;77.84;99322.63;5041819;28;20458;-47
2024/03/14 03:11:30;;;;;;;9.85;2.20;;;;;;;10.44;78.40;99324.38;5040786;28;20053;-48
2024/03/14 03:13:57;;;;;;;;;;;;;;;10.29;78.46;99326.28;5037723;28;20689;-44
2024/03/14 03:16:24;;;;;;;7.35;1.70;;;;;;;10.37;77.90;99318.38;5035445;28;19932;-45
2024/03/14 03:18:50;;;;;;;5.20;1.92;;;;;;;10.42;77.71;99315.75;5024283;28;20056;-48
2024/03/14 03:21:18;;;;;;;4.85;1.52;;;;;;;10.39;78.36;99314.06;5028131;28;20156;-47
2024/03/14 03:23:44;;;;;;;8.50;1.80;;;;;;;10.44;78.28;99308.81;5027612;28;20080;-45
2024/03/14 03:26:11;;;;;;;8.43;2.33;;;;;;;10.43;77.66;99314.03;5025276;28;20143;-46
2024/03/14 03:28:39;;;;;;;6.43;2.10;;;;;;;10.43;78.72;99312.28;5023298;28;20049;-47
2024/03/14 03:31:08;;;;;;;8.68;2.03;;;;;;;10.43;78.88;99308.84;5027008;28;20049;-52
2024/03/14 03:33:35;;;;;;;7.00;1.65;;;;;;;10.41;78.87;99307.09;5021780;28;20142;-47
2024/03/14 03:36:06;;;;;;;7.55;1.75;;;;;;;10.46;78.59;99303.63;5020885;28;20048;-48
2024/03/14 03:38:37;;;;;;;8.68;2.38;;;;;;;10.41;78.31;99290.75;5026526;28;20041;-50
2024/03/14 03:41:04;;;;;;;5.55;2.22;;;;;;;10.40;78.81;99287.28;5026567;28;20049;-48
2024/03/14 03:43:30;;;;;;;9.95;2.28;;;;;;;10.40;78.22;99291.59;5023220;28;20410;-47
2024/03/14 03:45:57;;;;;;;11.13;2.28;;;;;;;10.41;77.96;99288.16;5026708;28;20056;-48
2024/03/14 03:48:24;;;;;;;5.05;1.63;;;;;;;10.42;78.81;99292.44;5023276;28;20053;-47
2024/03/14 03:50:51;;;;;;;10.50;2.88;;;;;;;10.43;78.06;99296.75;5025522;28;20053;-46
2024/03/14 03:53:19;;;;;;;8.13;2.92;;;;;;;10.40;78.85;99282.09;5026676;28;20139;-45
2024/03/14 03:55:46;;;;;;;5.45;2.05;;;;;;;10.37;78.51;99289.06;5026601;28;20049;-47
2024/03/14 03:58:12;;;;;;;8.68;1.95;;;;;;;10.36;78.56;99289.94;5031461;28;20053;-50
2024/03/14 04:00:44;;;;;;;6.50;2.33;;;;;;;10.35;77.99;99286.50;5025918;28;20137;-50
2024/03/14 04:03:11;;;;;;;6.60;2.33;;;;;;;10.33;78.16;99277.06;5026959;28;20041;-48
2024/03/14 04:05:39;;;;;;;12.15;3.75;;;;;;;10.34;78.72;99282.19;5022092;28;20083;-50
2024/03/14 04:08:06;;;;;;;11.88;2.53;;;;;;;10.32;78.30;99277.91;5021447;28;20057;-45
2024/03/14 04:10:33;;;;;;;8.50;2.92;;;;;;;10.32;78.80;99272.75;5025847;28;20485;-47
2024/03/14 04:13:01;;;;;;;7.38;2.58;;;;;;;10.33;78.68;99264.13;5026472;28;20049;-48
2024/03/14 04:15:28;;;;;;;6.80;2.42;;;;;;;10.31;78.72;99260.69;5018857;28;20045;-49
2024/03/14 04:17:56;;;;;;;9.10;3.13;;;;;;;10.28;78.96;99257.28;5022692;28;20073;-49
2024/03/14 04:20:27;;;;;;;8.75;2.50;;;;;;;10.27;78.81;99250.38;5022349;28;20445;-48
2024/03/14 04:22:54;;;;;;;7.28;3.05;;;;;;;10.24;79.45;99250.41;5023673;28;20335;-48
2024/03/14 04:25:21;;;;;;;5.43;2.72;;;;;;;10.22;78.81;99247.00;5025212;28;20532;-47
2024/03/14 04:27:51;;;;;;;7.05;2.33;;;;;;;10.24;79.61;99250.41;5020342;28;20041;-48
2024/03/14 04:30:23;;;;;;;6.93;2.10;;;;;;;10.19;78.95;99247.03;5019107;28;20620;-47
2024/03/14 04:32:50;;;;;;;6.18;1.65;;;;;;;10.19;79.22;99249.63;5026221;28;20564;-48
2024/03/14 04:35:20;;;;;;;8.77;1.83;;;;;;;10.18;79.73;99255.69;5027563;28;20111;-47
2024/03/14 04:37:49;;;;;;;2.13;0.95;;;;;;;10.14;79.55;99243.66;5024043;28;20050;-49
2024/03/14 04:40:19;;;;;;;5.28;1.85;;;;;;;10.14;80.40;99241.09;5020727;28;20087;-50
2024/03/14 04:42:47;;;;;;;5.32;1.98;;;;;;;10.16;80.01;99239.31;5025179;28;20060;-45
2024/03/14 04:45:21;;;;;;;6.50;2.05;;;;;;;10.15;79.55;99235.03;5020084;28;20596;-50
2024/03/14 04:47:48;;;;;;;5.10;1.60;;;;;;;10.13;80.05;99237.63;5025406;28;20115;-47
2024/03/14 04:50:18;;;;;;;9.43;2.10;;;;;;;10.16;80.02;99237.59;5016809;28;20522;-49
2024/03/14 04:52:46;;;;;;;6.22;2.35;;;;;;;10.17;79.82;99243.63;5026048;28;20111;-51
2024/03/14 04:55:13;;;;;;;10.48;2.92;;;;;;;10.19;79.71;99241.84;5026224;28;20084;-51
2024/03/14 04:57:41;;;;;;;4.20;1.75;;;;;;;10.16;80.23;99232.41;5017723;28;20052;-48
2024/03/14 05:00:20;;;;;;;5.80;1.83;;;;;;;10.16;80.35;99227.25;5022316;28;20045;-48
2024/03/14 05:02:50;;;;;;;7.90;2.00;;;;;;;10.15;79.75;99228.13;5018059;28;20136;-48
2024/03/14 05:05:18;;;;;;;9.95;2.75;;;;;;;10.13;80.53;99226.41;5021272;28;20048;-46
2024/03/14 05:07:45;;;;;;;5.22;2.17;;;;;;;10.13;80.36;99221.22;5018403;28;20453;-50
2024/03/14 05:10:14;;;;;;;7.70;1.83;;;;;;;10.11;80.36;99223.00;5026177;28;20061;-44
2024/03/14 05:12:42;;;;;;;12.30;1.98;;;;;;;10.11;80.39;99225.59;5023944;28;20057;-49
2024/03/14 05:15:10;;;;;;;7.72;2.15;;;;;;;10.10;81.18;99221.31;5024312;28;20403;-46
2024/03/14 05:17:36;;;;;;;6.78;2.08;;;;;;;10.07;80.70;99211.00;5020323;28;20726;-50
2024/03/14 05:20:05;;;;;;;6.10;1.92;;;;;;;10.05;80.39;99212.72;5024673;28;20050;-44
2024/03/14 05:22:32;;;;;;;4.32;1.83;;;;;;;10.00;80.61;99218.81;5022813;28;20839;-46
2024/03/14 05:25:04;;;;;;;3.42;1.38;;;;;;;10.02;79.98;99209.31;5024889;28;20049;-47
2024/03/14 05:27:30;;;;;;;6.03;1.88;;;;;;;9.99;80.42;99209.34;5026130;28;20049;-51
2024/03/14 05:29:57;;;;;;;4.70;2.13;;;;;;;10.01;80.42;99207.63;5018541;28;20061;-47
2024/03/14 05:32:27;;;;;;;5.68;1.70;;;;;;;9.97;80.24;99197.34;5022016;28;20064;-45
2024/03/14 05:34:55;;;;;;;10.07;2.28;;;;;;;9.91;80.92;99193.09;5018032;28;20050;-46
2024/03/14 05:37:25;;;;;;;2.78;1.10;;;;;;;9.98;80.92;99199.91;5024312;28;20076;-50
2024/03/14 05:39:52;;;;;;;5.85;2.70;;;;;;;10.00;80.78;99200.72;5019754;28;20064;-48
2024/03/14 05:42:19;;;;;;;4.95;1.75;;;;;;;9.98;80.29;99207.66;5023038;28;21406;-46
2024/03/14 05:44:50;;;;;;;6.70;1.73;;;;;;;10.00;80.76;99198.13;5019385;28;20600;-51
2024/03/14 05:47:17;;;;;;;4.20;1.83;;;;;;;10.00;80.31;99203.31;5020942;28;20465;-46
2024/03/14 05:49:43;;;;;;;3.15;1.42;;;;;;;9.93;80.98;99206.84;5021915;28;20051;-45
2024/03/14 05:52:11;;;;;;;4.13;1.92;;;;;;;9.90;80.72;99209.50;5021295;28;20730;-45
2024/03/14 05:54:39;;;;;;;5.15;1.58;;;;;;;9.97;80.85;99205.94;5022726;28;20053;-47
2024/03/14 05:57:05;;;;;;;7.75;2.47;;;;;;;9.99;80.34;99206.78;5023415;28;20050;-50
2024/03/14 05:59:35;;;;;;;6.05;1.67;;;;;;;10.01;80.26;99209.34;5023691;28;20041;-48
2024/03/14 06:02:02;;;;;;;3.38;1.75;;;;;;;10.01;80.57;99204.16;5020611;28;20072;-49
2024/03/14 06:04:30;;;;;;;9.82;2.63;;;;;;;10.03;80.29;99213.63;5018392;28;20053;-48
2024/03/14 06:06:56;;;;;;;8.38;1.67;;;;;;;10.00;80.73;99210.22;5023849;28;20087;-50
2024/03/14 06:09:32;;;;;;;4.88;2.13;;;;;;;10.02;80.15;99211.03;5020398;28;20403;-50
2024/03/14 06:11:59;;;;;;;3.83;1.88;;;;;;;10.02;80.51;99219.69;5027360;28;20429;-51
2024/03/14 06:14:26;;;;;;;4.53;1.80;;;;;;;10.06;80.24;99204.13;5018426;28;20565;-47
2024/03/14 06:16:53;;;;;;;3.28;1.00;;;;;;;10.03;80.47;99205.84;5025617;28;20038;-47
2024/03/14 06:19:21;;;;;;;6.15;1.85;;;;;;;10.05;80.61;99208.41;5020562;28;20056;-49
2024/03/14 06:21:50;;;;;;;5.95;2.33;;;;;;;10.07;80.79;99205.81;5017672;28;20104;-53
2024/03/14 06:24:17;;;;;;;3.78;1.60;;;;;;;10.07;80.54;99205.81;5023404;28;20084;-46
2024/03/14 06:26:46;;;;;;;9.15;2.35;;;;;;;10.07;80.63;99201.50;5018024;28;20144;-47
2024/03/14 06:29:13;;;;;;;4.55;1.70;;;;;;;10.07;80.04;99198.06;5025148;28;20457;-47
2024/03/14 06:31:41;;;;;;;8.20;2.35;;;;;;;10.08;80.34;99204.94;5019508;28;20049;-50
2024/03/14 06:34:09;;;;;;;9.43;2.25;;;;;;;10.08;79.90;99205.78;5024909;28;20052;-48
2024/03/14 06:36:36;;;;;;;7.10;2.17;;;;;;;10.11;80.31;99207.47;5022944;28;20050;-49
2024/03/14 06:39:07;;;;;;;3.70;1.67;;;;;;;10.11;80.19;99212.66;5033307;28;20053;-48
2024/03/14 06:41:34;;;;;;;6.07;2.03;;;;;;;10.12;80.71;99201.41;5022296;28;20487;-46
2024/03/14 06:44:01;;;;;;;4.45;1.98;;;;;;;10.11;80.10;99202.31;5019193;28;20050;-49
2024/03/14 06:46:28;;;;;;;4.20;2.13;;;;;;;10.14;80.91;99202.25;5023397;28;20399;-45
2024/03/14 06:48:56;;;;;;;6.15;2.08;;;;;;;10.18;80.53;99198.75;5024761;28;20103;-46
2024/03/14 06:51:23;;;;;;;7.68;2.28;;;;;;;10.18;80.14;99203.94;5023993;28;20057;-49
2024/03/14 06:53:50;;;;;;;6.35;2.58;;;;;;;10.16;80.05;99190.16;5023017;28;20067;-47
2024/03/14 06:56:17;;;;;;;4.30;1.45;;;;;;;10.21;80.31;99203.03;5022479;28;20141;-47
2024/03/14 06:58:46;;;;;;;2.63;1.75;;;;;;;10.20;79.94;99191.81;5026380;28;20136;-51
2024/03/14 07:01:15;;;;;;;2.17;1.00;;;;;;;10.23;80.89;99209.88;5019226;28;20240;-50
2024/03/14 07:03:42;;;;;;;4.97;2.00;;;;;;;10.26;80.24;99209.84;5028037;28;20050;-48
2024/03/14 07:06:12;;;;;;;5.82;1.83;;;;;;;10.34;80.59;99208.88;5022751;28;20510;-47
2024/03/14 07:08:39;;;;;;;7.68;1.95;;;;;;;10.35;80.64;99206.25;5025901;28;20553;-50
2024/03/14 07:11:06;;;;;;;8.38;1.73;;;;;;;10.38;79.58;99210.53;5027576;28;20041;-48
2024/03/14 07:13:35;;;;;;;5.07;1.50;;;;;;;10.38;79.90;99210.53;5021287;28;20081;-48
2024/03/14 07:16:09;;;;;;;8.80;2.20;;;;;;;10.39;79.52;99215.69;5025108;28;20064;-48
2024/03/14 07:18:36;;;;;;;4.93;1.05;;;;;;;10.43;80.28;99213.91;5027337;28;20574;-50
2024/03/14 07:21:04;;;;;;;3.42;1.92;;;;;;;10.39;80.34;99207.06;5026903;28;20492;-46
2024/03/14 07:23:33;;;;;;;4.45;1.58;;;;;;;10.35;79.92;99216.63;5024504;28;20499;-49
2024/03/14 07:26:01;;;;;;;9.00;3.58;;;;;;;10.43;80.31;99208.72;5021019;28;20076;-47
2024/03/14 07:28:27;;;;;;;4.95;1.58;;;;;;;10.39;80.49;99202.75;5026840;28;20049;-50
2024/03/14 07:30:55;;;;;;;6.63;2.70;;;;;;;10.39;79.46;99205.34;5024128;28;20064;-51
2024/03/14 07:33:22;;;;;;;7.10;2.20;;;;;;;10.41;79.68;99205.31;5025738;28;20060;-50
2024/03/14 07:35:50;;;;;;;30.33;2.75;;;;;;;10.43;80.14;99203.53;5020502;28;20156;-49
2024/03/14 07:38:21;;;;;;;7.53;3.08;;;;;;;10.44;79.91;99192.34;5027084;28;20053;-47
2024/03/14 07:40:47;;;;;;;5.18;1.35;;;;;;;10.44;80.17;99215.63;5025263;28;20046;-48
2024/03/14 07:43:14;;;;;;;9.05;2.45;;;;;;;10.49;80.50;99207.81;5024637;28;20057;-50
2024/03/14 07:45:41;;;;;;;3.80;1.77;;;;;;;10.47;79.51;99215.59;5024049;28;20060;-48
2024/03/14 07:48:10;;;;;;;8.50;2.45;;;;;;;10.51;79.94;99212.06;5016626;28;20068;-46
2024/03/14 07:50:36;;;;;;;3.17;1.83;;;;;;;10.51;80.25;99219.00;5018321;28;20461;-47
2024/03/14 07:53:03;;;;;;;8.88;3.42;;;;;;;10.54;78.95;99216.38;5022331;28;20041;-49
2024/03/14 07:55:33;;;;;;;3.67;1.73;;;;;;;10.42;79.64;99199.25;5024821;28;20051;-44
2024/03/14 07:58:04;;;;;;;7.95;2.13;;;;;;;10.52;79.60;99203.44;5022619;28;20081;-45
2024/03/14 08:00:31;;;;;;;8.40;1.73;;;;;;;10.56;79.51;99198.19;5025509;28;20057;-47
2024/03/14 08:02:58;;;;;;;6.60;2.25;;;;;;;10.58;79.61;99206.81;5024344;28;20049;-46
2024/03/14 08:05:25;;;;;;;10.55;2.30;;;;;;;10.60;80.38;99199.88;5020488;28;20058;-52
2024/03/14 08:07:52;;;;;;;6.10;2.17;;;;;;;10.62;79.53;99198.09;5022945;28;20426;-47
2024/03/14 08:10:45;;;;;;;5.70;1.75;;;;;;;10.64;79.11;99186.00;5019601;28;20126;-47
2024/03/14 08:13:28;;;;;;;5.78;2.33;;;;;;;10.69;79.89;99193.66;5022749;28;20132;-49
2024/03/14 08:15:59;;;;;;;2.85;1.38;;;;;;;10.69;79.56;99191.06;5019006;28;20053;-45
2024/03/14 08:18:26;;;;;;;8.88;2.53;;;;;;;10.70;80.16;99191.06;5024944;28;20594;-46
2024/03/14 08:20:57;;;;;;;9.15;2.60;;;;;;;10.78;78.98;99194.38;5022966;28;20053;-48
2024/03/14 08:23:26;;;;;;;5.50;2.20;;;;;;;10.87;79.29;99192.50;5024536;28;20049;-48
2024/03/14 08:25:53;;;;;;;7.80;2.40;;;;;;;10.90;78.88;99193.31;5025358;28;20135;-49
2024/03/14 08:28:20;;;;;;;6.30;2.05;;;;;;;10.89;79.44;99195.91;5025617;28;20077;-50
2024/03/14 08:30:46;;;;;;;10.30;2.38;;;;;;;11.03;78.28;99193.94;5022693;28;20113;-47
2024/03/14 08:33:13;;;;;;;5.10;1.77;;;;;;;11.04;78.67;99198.22;5023072;28;20103;-48
2024/03/14 08:35:42;;;;;;;7.63;3.22;;;;;;;11.08;79.05;99187.81;5023085;28;20390;-48
2024/03/14 08:38:13;;;;;;;5.05;2.30;;;;;;;11.12;78.60;99181.69;5023031;28;20053;-45
2024/03/14 08:40:42;;;;;;;6.55;1.92;;;;;;;11.13;78.97;99184.25;5020943;28;20072;-48
2024/03/14 08:43:11;;;;;;;4.15;1.85;;;;;;;11.09;78.81;99179.16;5026152;28;20053;-50
2024/03/14 08:45:38;;;;;;;;;;;;;;;11.00;77.55;99175.84;5024053;28;20064;-46
2024/03/14 08:48:09;;;;;;;4.18;2.25;;;;;;;11.07;78.38;99183.53;5024843;28;19957;-51
2024/03/14 08:50:40;;;;;;;5.53;2.28;;;;;;;11.10;78.37;99178.25;5004361;28;20164;-51
2024/03/14 08:53:12;;;;;;;5.97;2.63;;;;;;;11.08;78.60;99172.28;5025886;28;20533;-46
2024/03/14 08:55:45;;;;;;;7.30;2.80;;;;;;;11.12;77.54;99176.50;5025435;28;20077;-47
2024/03/14 08:58:12;;;;;;;9.55;3.20;;;;;;;11.23;78.26;99169.38;5025776;28;20053;-51
2024/03/14 09:00:39;;;;;;;8.93;2.80;;;;;;;11.29;77.49;99174.44;5026063;28;20057;-51
2024/03/14 09:03:06;;;;;;;10.80;3.42;;;;;;;11.40;77.46;99168.19;5018005;28;20100;-52
2024/03/14 09:05:33;;;;;;;6.18;2.58;;;;;;;11.45;77.39;99171.53;5024884;28;20037;-48
2024/03/14 09:08:00;;;;;;;6.88;2.78;;;;;;;11.55;77.32;99167.88;5025936;28;20045;-50
2024/03/14 09:10:26;;;;;;;9.95;3.05;;;;;;;11.45;76.64;99174.13;5023581;28;20125;-49
2024/03/14 09:12:55;;;;;;;7.15;3.15;;;;;;;11.57;77.31;99163.50;5024437;28;20107;-47
2024/03/14 09:15:23;;;;;;;6.45;2.45;;;;;;;11.56;77.17;99161.78;5023616;28;20056;-47
2024/03/14 09:17:51;;;;;;;6.90;3.05;;;;;;;11.52;77.62;99154.97;5025430;28;20536;-51
2024/03/14 09:20:20;;;;;;;5.93;2.65;;;;;;;11.59;77.05;99153.13;5025193;28;20056;-51
2024/03/14 09:22:53;;;;;;;7.38;2.53;;;;;;;11.54;76.75;99147.16;5024591;28;20059;-50
2024/03/14 09:25:22;;;;;;;5.40;2.50;;;;;;;11.62;76.51;99154.78;5023197;28;20056;-47
2024/03/14 09:27:51;;;;;;;11.13;2.55;;;;;;;11.73;76.58;99147.63;5024475;28;20192;-49
2024/03/14 09:30:18;;;;;;;3.88;2.30;;;;;;;12.01;76.25;99157.38;5023135;28;20064;-49
2024/03/14 09:32:46;;;;;;;6.80;3.25;;;;;;;12.30;76.36;99145.47;5025400;28;20049;-45
2024/03/14 09:35:16;;;;;;;7.28;3.17;;;;;;;12.57;76.08;99145.66;5024427;28;20053;-46
2024/03/14 09:37:43;;;;;;;5.03;3.30;;;;;;;12.71;75.22;99141.88;5020980;28;20095;-47
2024/03/14 09:40:15;;;;;;;5.80;2.03;;;;;;;12.89;74.90;99155.25;5023700;28;20050;-47
2024/03/14 09:42:47;;;;;;;5.70;2.38;;;;;;;12.99;73.70;99151.53;5024397;28;20053;-45
2024/03/14 09:45:14;;;;;;;6.10;2.72;;;;;;;13.07;73.76;99146.97;5022014;28;20057;-49
2024/03/14 09:47:41;;;;;;;5.43;3.00;;;;;;;13.20;72.55;99151.81;5024367;28;20084;-48
2024/03/14 09:50:17;;;;;;;9.48;2.55;;;;;;;13.15;73.05;99145.91;5022961;28;20095;-51
2024/03/14 09:52:44;;;;;;;6.47;2.60;;;;;;;13.10;72.85;99149.47;5024013;28;20179;-47
2024/03/14 09:55:13;;;;;;;6.00;2.47;;;;;;;13.04;72.36;99151.41;5025194;28;20140;-48
2024/03/14 09:57:40;;;;;;;6.18;3.28;;;;;;;12.99;72.61;99167.13;5018504;28;20049;-44
2024/03/14 10:00:11;;;;;;;9.05;3.08;;;;;;;13.05;73.12;99161.75;5025282;28;20072;-48
2024/03/14 10:02:38;;;;;;;7.35;2.53;;;;;;;13.04;73.28;99165.22;5021912;28;20046;-47
2024/03/14 10:05:11;;;;;;;6.47;2.35;;;;;;;12.99;72.60;99156.72;5023604;28;20791;-49
2024/03/14 10:07:39;;;;;;;5.15;2.35;;;;;;;13.06;72.62;99157.41;5025388;28;20057;-46
2024/03/14 10:10:07;;;;;;;4.40;1.90;;;;;;;13.11;72.62;99161.56;5021377;28;20051;-46
2024/03/14 10:12:36;;;;;;;7.53;1.95;;;;;;;13.17;72.81;99159.72;5022560;28;20795;-48
2024/03/14 10:15:12;;;;;;;4.72;1.73;;;;;;;13.16;72.87;99152.78;5023291;28;20053;-45
2024/03/14 10:17:42;;;;;;;5.80;2.15;;;;;;;13.21;72.93;99143.97;5024493;28;20045;-49
2024/03/14 10:20:13;;;;;;;;;;;;;;;13.19;71.90;99148.38;5026404;28;20080;-51
2024/03/14 10:22:41;;;;;;;7.40;2.60;;;;;;;13.35;72.85;99153.97;5021114;28;19936;-51
2024/03/14 10:25:14;;;;;;;5.05;2.65;;;;;;;13.37;72.20;99146.13;5022511;28;20122;-49
2024/03/14 10:27:44;;;;;;;8.35;3.55;;;;;;;13.55;72.36;99139.59;5025156;28;20045;-45
2024/03/14 10:30:28;;;;;;;3.35;2.15;;;;;;;13.61;71.98;99142.00;5025232;28;20060;-49
2024/03/14 10:32:56;;;;;;;5.53;2.75;;;;;;;13.72;71.02;99146.88;5023458;28;20127;-45
2024/03/14 10:35:25;;;;;;;5.78;2.40;;;;;;;13.78;71.94;99130.22;5025853;28;20117;-47
2024/03/14 10:37:57;;;;;;;8.25;2.58;;;;;;;13.93;70.70;99133.25;5025638;28;20494;-50
2024/03/14 10:40:27;;;;;;;6.28;2.25;;;;;;;13.98;70.81;99128.75;5035214;28;20053;-48
2024/03/14 10:42:55;;;;;;;7.60;2.22;;;;;;;13.97;70.25;99129.66;5034533;28;20050;-50
2024/03/14 10:45:23;;;;;;;4.32;2.05;;;;;;;13.97;70.18;99124.44;5028147;28;20061;-45
2024/03/14 10:47:51;;;;;;;5.22;2.38;;;;;;;14.13;70.56;99120.47;5021092;28;20795;-44
2024/03/14 10:50:19;;;;;;;6.80;2.80;;;;;;;14.27;70.67;99121.75;5027457;28;20053;-49
2024/03/14 10:52:49;;;;;;;6.18;1.85;;;;;;;14.26;70.05;99105.28;5024967;28;20073;-48
2024/03/14 10:55:17;;;;;;;3.42;1.27;;;;;;;14.19;69.81;99114.19;5026807;28;20057;-48
2024/03/14 10:57:45;;;;;;;5.40;1.65;;;;;;;14.04;69.26;99104.25;5022112;28;20042;-48
2024/03/14 11:00:17;;;;;;;3.17;1.33;;;;;;;13.94;69.30;99103.72;5027068;28;20060;-50
2024/03/14 11:02:49;;;;;;;5.68;1.98;;;;;;;13.87;69.67;99098.72;5019046;28;20060;-48
2024/03/14 11:05:22;;;;;;;5.05;2.22;;;;;;;13.84;69.65;99088.41;5021489;28;20399;-50
2024/03/14 11:07:52;;;;;;;8.60;2.30;;;;;;;13.81;70.46;99093.69;5025706;28;20071;-44
2024/03/14 11:10:24;;;;;;;6.15;2.40;;;;;;;13.80;70.47;99092.00;5021607;28;20049;-45
2024/03/14 11:12:57;;;;;;;5.60;2.28;;;;;;;13.73;69.98;99090.47;5023965;28;20061;-47
2024/03/14 11:15:25;;;;;;;4.95;1.83;;;;;;;13.68;70.51;99093.22;5024641;28;20104;-46
2024/03/14 11:17:56;;;;;;;4.65;1.60;;;;;;;13.62;70.18;99089.06;5021399;28;20096;-51
2024/03/14 11:20:28;;;;;;;5.55;2.33;;;;;;;13.68;70.41;99085.41;5023542;28;20053;-47
2024/03/14 11:22:57;;;;;;;6.82;2.20;;;;;;;13.67;70.84;99085.47;5023428;28;20810;-48
2024/03/14 11:25:27;;;;;;;4.95;1.70;;;;;;;13.69;71.22;99078.47;5025970;28;20057;-47
2024/03/14 11:27:56;;;;;;;6.63;1.58;;;;;;;13.75;70.42;99073.09;5027435;28;20057;-48
2024/03/14 11:30:24;;;;;;;2.83;1.60;;;;;;;13.72;70.05;99068.81;5022742;28;20137;-47
2024/03/14 11:32:55;;;;;;;6.60;2.22;;;;;;;13.75;70.86;99065.28;5025220;28;20087;-46
2024/03/14 11:35:43;;;;;;;4.93;1.92;;;;;;;13.77;70.12;99060.88;5026361;28;20077;-46
2024/03/14 11:40:58;;;;;;;3.17;2.10;;;;;;;13.96;70.59;99055.06;5090848;27;20369;-49
2024/03/14 11:43:28;;;;;;;2.45;1.40;;;;;;;13.99;70.15;99054.97;5057597;28;20102;-46
2024/03/14 11:45:57;;;;;;;6.90;2.22;;;;;;;14.07;69.70;99046.88;5057621;28;20060;-44
2024/03/14 11:48:25;;;;;;;2.15;1.50;;;;;;;14.26;70.10;99047.13;5054337;28;20048;-47